Time;durP1;ratioP1;P1;durP2;ratioP2;P2;SDS_P1;SDS_P2;PMS_P1;PMS_P2;Temp;Humidity;BMP_temperature;BMP_pressure;BME280_temperature;BME280_humidity;BME280_pressure;Samples;Min_cycle;Max_cycle;Signal;HPM_P1;HPM_P2
2022/02/16 00:00:06;;;;;;;4.43;3.43;;;9.30;99.90;;;;;;6329518;22;20167;-92
2022/02/16 00:02:41;;;;;;;5.27;3.53;;;9.30;99.90;;;;;;6327199;22;20221;-93
2022/02/16 00:05:13;;;;;;;6.10;3.30;;;9.10;99.90;;;;;;6331453;22;20178;-94
2022/02/16 00:07:47;;;;;;;5.87;3.37;;;9.00;99.90;;;;;;6333298;22;20163;-95
2022/02/16 00:10:19;;;;;;;6.23;3.40;;;9.00;99.90;;;;;;6330462;22;20169;-93
2022/02/16 00:12:52;;;;;;;6.07;3.50;;;9.00;99.90;;;;;;6325318;22;20170;-93
2022/02/16 00:15:25;;;;;;;6.80;3.70;;;9.10;99.90;;;;;;6329221;22;20166;-94
2022/02/16 00:17:57;;;;;;;7.93;3.20;;;9.10;99.90;;;;;;6325203;22;20199;-94
2022/02/16 00:20:28;;;;;;;7.93;3.10;;;9.10;99.90;;;;;;6328160;22;20162;-94
2022/02/16 00:23:00;;;;;;;4.60;2.87;;;9.00;99.90;;;;;;6327164;22;20185;-94
2022/02/16 00:25:31;;;;;;;6.30;3.50;;;9.00;99.90;;;;;;6329036;22;20178;-95
2022/02/16 00:28:05;;;;;;;4.23;3.27;;;9.00;99.90;;;;;;6325082;22;20512;-93
2022/02/16 00:30:37;;;;;;;6.97;3.47;;;9.00;99.90;;;;;;6324568;22;20178;-93
2022/02/16 00:33:09;;;;;;;4.37;3.03;;;9.00;99.90;;;;;;6320333;22;20167;-94
2022/02/16 00:35:40;;;;;;;6.33;3.47;;;9.00;99.90;;;;;;6320957;22;20166;-93
2022/02/16 00:38:12;;;;;;;5.27;3.43;;;9.00;99.90;;;;;;6329627;22;20210;-93
2022/02/16 00:40:44;;;;;;;3.77;3.10;;;8.90;99.90;;;;;;6334847;22;20241;-94
2022/02/16 00:43:18;;;;;;;9.07;3.87;;;8.90;99.90;;;;;;6323736;22;20236;-95
2022/02/16 00:45:50;;;;;;;5.33;3.00;;;8.90;99.90;;;;;;6331909;22;20165;-93
2022/02/16 00:48:22;;;;;;;4.53;3.63;;;8.90;99.90;;;;;;6309380;22;20653;-94
2022/02/16 00:50:54;;;;;;;5.17;3.47;;;8.70;99.90;;;;;;6285075;22;20187;-94
2022/02/16 00:53:25;;;;;;;4.90;3.30;;;8.60;99.90;;;;;;6292349;22;20217;-93
2022/02/16 00:55:57;;;;;;;4.70;3.57;;;8.50;99.90;;;;;;6298391;22;20186;-94
2022/02/16 00:58:35;;;;;;;4.00;3.33;;;8.50;99.90;;;;;;6295421;22;20231;-93
2022/02/16 01:01:06;;;;;;;4.23;3.13;;;8.40;99.90;;;;;;6298080;22;20175;-92
2022/02/16 01:03:38;;;;;;;4.77;3.37;;;8.30;99.90;;;;;;6295275;22;20164;-92
2022/02/16 01:06:09;;;;;;;4.60;3.30;;;8.20;99.90;;;;;;6299110;22;20174;-93
2022/02/16 01:08:41;;;;;;;4.27;2.90;;;8.20;99.90;;;;;;6300648;22;20220;-93
2022/02/16 01:11:12;;;;;;;4.80;3.20;;;8.20;99.90;;;;;;6297028;22;20167;-93
2022/02/16 01:13:45;;;;;;;5.70;3.00;;;8.20;99.90;;;;;;6295382;22;20178;-90
2022/02/16 01:18:59;;;;;;;4.87;2.83;;;8.20;99.90;;;;;;6305963;22;20217;-94
2022/02/16 01:21:30;;;;;;;4.47;3.63;;;8.20;99.90;;;;;;6323301;22;20181;-92
2022/02/16 01:24:01;;;;;;;6.33;3.57;;;8.20;99.90;;;;;;6318165;22;20178;-93
2022/02/16 01:26:34;;;;;;;4.27;2.70;;;8.20;99.90;;;;;;6327971;22;20170;-93
2022/02/16 01:29:07;;;;;;;7.43;2.97;;;8.20;99.90;;;;;;6332616;22;20167;-93
2022/02/16 01:31:38;;;;;;;4.43;2.80;;;8.20;99.90;;;;;;6334262;22;20162;-89
2022/02/16 01:36:46;;;;;;;6.00;2.53;;;8.10;99.90;;;;;;6304072;22;20253;-93
2022/02/16 01:39:17;;;;;;;3.23;2.57;;;8.10;99.90;;;;;;6304567;22;20167;-93
2022/02/16 01:41:49;;;;;;;4.83;2.90;;;8.10;99.90;;;;;;6304583;22;20190;-94
2022/02/16 01:44:28;;;;;;;4.53;2.67;;;8.10;99.90;;;;;;6304656;22;20207;-92
2022/02/16 01:47:04;;;;;;;4.27;2.43;;;8.10;99.90;;;;;;6303643;22;20177;-93
2022/02/16 01:49:37;;;;;;;3.77;2.77;;;8.00;99.90;;;;;;6303758;22;20175;-95
2022/02/16 01:52:09;;;;;;;3.37;2.60;;;8.00;99.90;;;;;;6301971;22;20168;-94
2022/02/16 01:54:40;;;;;;;4.80;2.33;;;8.00;99.90;;;;;;6303381;22;20167;-93
2022/02/16 01:57:11;;;;;;;4.47;2.70;;;8.00;99.90;;;;;;6299731;22;20195;-94
2022/02/16 01:59:43;;;;;;;4.10;2.37;;;8.00;99.90;;;;;;6301809;22;20197;-94
2022/02/16 02:02:15;;;;;;;4.70;2.90;;;7.90;99.90;;;;;;6301681;22;20262;-93
2022/02/16 02:04:47;;;;;;;3.47;2.73;;;7.90;99.90;;;;;;6302266;22;20175;-92
2022/02/16 02:07:18;;;;;;;7.40;3.30;;;7.90;99.90;;;;;;6301657;22;20175;-93
2022/02/16 02:09:50;;;;;;;3.83;3.50;;;7.90;99.90;;;;;;6303356;22;20207;-92
2022/02/16 02:12:21;;;;;;;4.00;3.03;;;7.90;99.90;;;;;;6276285;22;20175;-94
2022/02/16 02:14:54;;;;;;;5.43;3.10;;;7.80;99.90;;;;;;6301261;22;20167;-93
2022/02/16 02:17:25;;;;;;;4.40;2.83;;;7.80;99.90;;;;;;6293225;22;20295;-93
2022/02/16 02:19:56;;;;;;;3.13;2.43;;;7.80;99.90;;;;;;6288126;22;20174;-93
2022/02/16 02:22:30;;;;;;;3.40;2.43;;;7.80;99.90;;;;;;6290767;22;20166;-94
2022/02/16 02:25:01;;;;;;;5.07;3.00;;;7.80;99.90;;;;;;6288535;22;20178;-94
2022/02/16 02:27:32;;;;;;;5.40;2.87;;;7.80;99.90;;;;;;6287136;22;20692;-96
2022/02/16 02:30:04;;;;;;;3.90;2.90;;;7.80;99.90;;;;;;6292120;22;20163;-96
2022/02/16 02:32:36;;;;;;;3.80;3.10;;;7.80;99.90;;;;;;6295884;22;20199;-94
2022/02/16 02:35:08;;;;;;;6.40;3.20;;;7.80;99.90;;;;;;6298609;22;20214;-93
2022/02/16 02:37:43;;;;;;;5.73;3.10;;;7.80;99.90;;;;;;6295526;22;20203;-93
2022/02/16 02:40:14;;;;;;;5.13;3.23;;;7.80;99.90;;;;;;6299187;22;20227;-92
2022/02/16 02:42:46;;;;;;;6.10;3.30;;;7.80;99.90;;;;;;6298784;22;20197;-94
2022/02/16 02:45:19;;;;;;;5.63;3.70;;;7.80;99.90;;;;;;6297071;22;20167;-93
2022/02/16 02:47:50;;;;;;;7.33;3.50;;;7.80;99.90;;;;;;6299266;22;20171;-92
2022/02/16 02:50:22;;;;;;;4.37;3.53;;;7.80;99.90;;;;;;6300385;22;20167;-92
2022/02/16 02:52:56;;;;;;;6.00;3.50;;;7.80;99.90;;;;;;6272202;22;20175;-92
2022/02/16 02:55:27;;;;;;;6.77;3.40;;;7.80;99.90;;;;;;6298414;22;20175;-93
2022/02/16 02:57:58;;;;;;;5.53;3.43;;;7.80;99.90;;;;;;6298074;22;20210;-93
2022/02/16 03:00:30;;;;;;;4.97;3.80;;;7.80;99.90;;;;;;6293950;22;20175;-92
2022/02/16 03:03:02;;;;;;;4.10;3.37;;;7.80;99.90;;;;;;6299212;22;20171;-94
2022/02/16 03:05:34;;;;;;;6.57;4.93;;;7.80;99.90;;;;;;6264998;22;20174;-93
2022/02/16 03:08:07;;;;;;;6.70;5.30;;;7.70;99.90;;;;;;6292364;22;20183;-94
2022/02/16 03:10:38;;;;;;;5.40;4.60;;;7.70;99.90;;;;;;6296430;22;20179;-93
2022/02/16 03:13:19;;;;;;;6.97;4.03;;;7.70;99.90;;;;;;6272492;22;20175;-92
2022/02/16 03:15:52;;;;;;;5.83;3.97;;;7.70;99.90;;;;;;6296523;22;20186;-92
2022/02/16 03:18:23;;;;;;;6.83;3.73;;;7.50;99.90;;;;;;6298244;22;20187;-92
2022/02/16 03:20:56;;;;;;;4.33;3.00;;;7.50;99.90;;;;;;6295928;22;20213;-94
2022/02/16 03:23:30;;;;;;;5.30;3.37;;;7.50;99.90;;;;;;6299078;22;20183;-93
2022/02/16 03:26:02;;;;;;;3.80;3.37;;;7.50;99.90;;;;;;6299482;22;20167;-93
2022/02/16 03:39:16;;;;;;;5.60;3.03;;;7.60;99.90;;;;;;6340420;22;20223;-94
2022/02/16 03:41:49;;;;;;;5.17;2.70;;;7.70;99.90;;;;;;6335798;22;20154;-93
2022/02/16 04:01:46;;;;;;;3.07;2.77;;;7.60;99.90;;;;;;6332752;22;20219;-93
2022/02/16 04:04:17;;;;;;;4.90;3.60;;;7.60;99.90;;;;;;6365305;22;20166;-96
2022/02/16 04:06:49;;;;;;;3.37;2.80;;;7.50;99.90;;;;;;6364872;22;20304;-94
2022/02/16 04:09:21;;;;;;;4.80;2.50;;;7.50;99.90;;;;;;6365200;22;20178;-93
2022/02/16 04:11:52;;;;;;;5.30;2.83;;;7.50;99.90;;;;;;6361245;22;20172;-95
2022/02/16 04:14:24;;;;;;;3.10;2.80;;;7.50;99.90;;;;;;6364974;22;20199;-94
2022/02/16 04:16:58;;;;;;;6.53;2.63;;;7.50;99.90;;;;;;6365482;22;20202;-94
2022/02/16 04:19:29;;;;;;;2.93;2.30;;;7.50;99.90;;;;;;6367054;22;20178;-94
2022/02/16 04:22:02;;;;;;;3.30;2.40;;;7.60;99.90;;;;;;6365748;22;20162;-93
2022/02/16 04:27:09;;;;;;;3.93;2.67;;;7.60;99.90;;;;;;6331948;22;20208;-94
2022/02/16 04:29:40;;;;;;;4.90;2.47;;;7.50;99.90;;;;;;6333058;22;20188;-93
2022/02/16 04:32:13;;;;;;;4.83;2.70;;;7.50;99.90;;;;;;6330228;22;20185;-94
2022/02/16 04:34:45;;;;;;;3.20;2.67;;;7.60;99.90;;;;;;6321444;22;20217;-92
2022/02/16 04:37:16;;;;;;;5.80;2.40;;;7.60;99.90;;;;;;6300009;22;20226;-92
2022/02/16 04:39:48;;;;;;;3.00;2.63;;;7.60;99.90;;;;;;6298846;22;20246;-93
2022/02/16 04:42:19;;;;;;;3.70;2.73;;;7.50;99.90;;;;;;6298882;22;20181;-92
2022/02/16 04:44:51;;;;;;;5.30;2.87;;;7.50;99.90;;;;;;6298352;22;20167;-93
2022/02/16 04:47:25;;;;;;;2.73;2.50;;;7.50;99.90;;;;;;6298723;22;20697;-94
2022/02/16 04:55:15;;;;;;;4.53;3.10;;;7.50;99.90;;;;;;6329452;22;20246;-92
2022/02/16 04:57:47;;;;;;;5.00;2.80;;;7.50;99.90;;;;;;6328199;22;20170;-92
2022/02/16 05:00:19;;;;;;;4.33;2.80;;;7.50;99.90;;;;;;6329708;22;20244;-92
2022/02/16 05:02:52;;;;;;;3.23;2.73;;;7.40;99.90;;;;;;6331876;22;20162;-94
2022/02/16 05:05:26;;;;;;;4.93;3.07;;;7.40;99.90;;;;;;6329200;22;20204;-92
2022/02/16 05:07:58;;;;;;;4.03;3.33;;;7.40;99.90;;;;;;6329324;22;20166;-92
2022/02/16 05:10:30;;;;;;;4.30;3.07;;;7.30;99.90;;;;;;6329138;22;20205;-93
2022/02/16 05:13:02;;;;;;;6.40;3.50;;;7.30;99.90;;;;;;6329246;22;20177;-92
2022/02/16 05:15:34;;;;;;;4.57;3.00;;;7.40;99.90;;;;;;6328278;22;20163;-93
2022/02/16 05:18:08;;;;;;;5.47;3.67;;;7.40;99.90;;;;;;6326017;22;20186;-93
2022/02/16 05:20:39;;;;;;;7.03;3.30;;;7.40;99.90;;;;;;6328644;22;20181;-93
2022/02/16 05:23:10;;;;;;;4.47;3.40;;;7.30;99.90;;;;;;6326914;22;20175;-93
2022/02/16 05:25:42;;;;;;;5.30;3.03;;;7.30;99.90;;;;;;6328663;22;20174;-93
2022/02/16 05:28:13;;;;;;;5.57;2.83;;;7.30;99.90;;;;;;6327992;22;20181;-93
2022/02/16 05:30:44;;;;;;;4.80;2.97;;;7.30;99.90;;;;;;6328191;22;20170;-93
2022/02/16 05:33:17;;;;;;;6.20;2.50;;;7.40;99.90;;;;;;6328662;22;20181;-92
2022/02/16 05:35:49;;;;;;;6.50;3.00;;;7.40;99.90;;;;;;6331012;22;20177;-93
2022/02/16 05:38:20;;;;;;;6.27;2.60;;;7.40;99.90;;;;;;6328653;22;20174;-93
2022/02/16 05:40:51;;;;;;;5.73;2.40;;;7.40;99.90;;;;;;6328234;22;20228;-92
2022/02/16 05:43:23;;;;;;;4.37;2.57;;;7.40;99.90;;;;;;6328119;22;20174;-93
2022/02/16 05:46:04;;;;;;;4.43;2.40;;;7.40;99.90;;;;;;6330264;22;20177;-93
2022/02/16 05:48:37;;;;;;;4.50;2.10;;;7.30;99.90;;;;;;6341364;22;20281;-93
2022/02/16 05:51:08;;;;;;;10.60;2.13;;;7.30;99.90;;;;;;6338830;22;20166;-93
2022/02/16 05:53:40;;;;;;;4.17;2.17;;;7.30;99.90;;;;;;6365722;22;20172;-93
2022/02/16 05:56:12;;;;;;;7.20;2.27;;;7.30;99.90;;;;;;6366526;22;20179;-92
2022/02/16 05:58:43;;;;;;;4.20;2.03;;;7.40;99.90;;;;;;6364848;22;20174;-94
2022/02/16 06:01:14;;;;;;;7.17;2.10;;;7.30;99.90;;;;;;6365885;22;20156;-92
2022/02/16 06:03:48;;;;;;;12.10;2.37;;;7.30;99.90;;;;;;6366773;22;20181;-94
2022/02/16 06:06:20;;;;;;;5.27;2.33;;;7.20;99.90;;;;;;6367239;22;20162;-94
2022/02/16 06:08:52;;;;;;;8.57;2.17;;;7.20;99.90;;;;;;6366298;22;20177;-91
2022/02/16 06:11:23;;;;;;;6.37;1.80;;;7.20;99.90;;;;;;6363425;22;20215;-92
2022/02/16 06:13:54;;;;;;;9.20;2.30;;;7.20;99.90;;;;;;6333257;22;20178;-92
2022/02/16 06:16:25;;;;;;;8.30;2.13;;;7.20;99.90;;;;;;6351523;22;20177;-93
2022/02/16 06:18:57;;;;;;;7.67;1.93;;;7.20;99.90;;;;;;6352255;22;20273;-92
2022/02/16 06:21:29;;;;;;;5.37;1.80;;;7.20;99.90;;;;;;6350169;22;20174;-93
2022/02/16 06:24:00;;;;;;;5.90;1.50;;;7.20;99.90;;;;;;6324599;22;20174;-94
2022/02/16 06:26:31;;;;;;;8.83;2.00;;;7.20;99.90;;;;;;6350248;22;20197;-94
2022/02/16 06:29:02;;;;;;;8.93;2.30;;;7.20;99.90;;;;;;6349660;22;20596;-94
2022/02/16 06:31:33;;;;;;;7.00;1.80;;;7.20;99.90;;;;;;6351887;22;20180;-94
2022/02/16 06:34:07;;;;;;;8.83;2.00;;;7.20;99.90;;;;;;6359221;22;20217;-91
2022/02/16 06:36:39;;;;;;;7.63;2.13;;;7.30;99.90;;;;;;6365653;22;20205;-95
2022/02/16 06:39:10;;;;;;;7.93;2.17;;;7.30;99.90;;;;;;6365941;22;20154;-94
2022/02/16 06:41:41;;;;;;;6.07;1.77;;;7.30;99.90;;;;;;6366178;22;20168;-94
2022/02/16 06:44:14;;;;;;;11.53;2.47;;;7.30;99.90;;;;;;6366153;22;20166;-92
2022/02/16 06:46:47;;;;;;;12.80;2.97;;;7.30;99.90;;;;;;6362601;22;20219;-93
2022/02/16 06:49:22;;;;;;;8.70;2.23;;;7.30;99.90;;;;;;6363150;22;20179;-93
2022/02/16 06:51:53;;;;;;;12.37;2.63;;;7.30;99.90;;;;;;6354504;22;20177;-93
2022/02/16 06:54:26;;;;;;;11.33;2.50;;;7.30;99.90;;;;;;6354372;22;20170;-93
2022/02/16 06:56:57;;;;;;;11.77;3.70;;;7.30;99.90;;;;;;6352142;22;20177;-93
2022/02/16 06:59:29;;;;;;;9.50;2.60;;;7.20;99.90;;;;;;6360067;22;20192;-92
2022/02/16 07:02:00;;;;;;;9.87;2.03;;;7.20;99.90;;;;;;6356218;22;20157;-92
2022/02/16 07:04:35;;;;;;;6.37;2.17;;;7.20;99.90;;;;;;6361601;22;20180;-92
2022/02/16 07:07:11;;;;;;;9.97;2.47;;;7.20;99.90;;;;;;6350065;22;20169;-92
2022/02/16 07:09:42;;;;;;;7.33;2.50;;;7.20;99.90;;;;;;6344853;22;20180;-94
2022/02/16 07:12:14;;;;;;;11.57;2.23;;;7.20;99.90;;;;;;6346280;22;20181;-93
2022/02/16 07:14:47;;;;;;;12.93;2.47;;;7.20;99.90;;;;;;6357931;22;20177;-93
2022/02/16 07:17:19;;;;;;;7.73;2.23;;;7.20;99.90;;;;;;6362617;22;20161;-93
2022/02/16 07:19:52;;;;;;;12.37;2.60;;;7.20;99.90;;;;;;6337299;22;20190;-93
2022/02/16 07:22:24;;;;;;;8.80;2.53;;;7.20;99.90;;;;;;6363092;22;20235;-94
2022/02/16 07:24:56;;;;;;;10.43;2.47;;;7.10;99.90;;;;;;6363803;22;20191;-94
2022/02/16 07:27:27;;;;;;;11.47;2.40;;;7.10;99.90;;;;;;6360582;22;20197;-91
2022/02/16 07:29:59;;;;;;;14.00;2.90;;;7.00;99.90;;;;;;6364600;22;20203;-93
2022/02/16 07:32:30;;;;;;;8.10;2.03;;;7.00;99.90;;;;;;6356573;22;20177;-93
2022/02/16 07:35:03;;;;;;;10.50;2.30;;;7.00;99.90;;;;;;6356200;22;20162;-93
2022/02/16 07:37:35;;;;;;;10.63;2.63;;;7.00;99.90;;;;;;6357650;22;20190;-93
2022/02/16 07:40:08;;;;;;;14.00;2.50;;;7.00;99.90;;;;;;6357202;22;20731;-93
2022/02/16 07:42:43;;;;;;;12.07;2.63;;;7.00;99.90;;;;;;6359119;22;20247;-94
2022/02/16 07:45:14;;;;;;;9.77;2.40;;;7.00;99.90;;;;;;6351540;22;20200;-93
2022/02/16 07:47:45;;;;;;;9.53;2.53;;;7.00;99.90;;;;;;6356410;22;20196;-93
2022/02/16 07:50:18;;;;;;;8.13;2.37;;;7.00;99.90;;;;;;6363858;22;20167;-93
2022/02/16 07:52:49;;;;;;;12.37;2.53;;;7.00;99.90;;;;;;6364289;22;20154;-94
2022/02/16 07:55:21;;;;;;;7.83;2.33;;;7.10;99.90;;;;;;6362841;22;20459;-93
2022/02/16 07:57:52;;;;;;;8.60;2.60;;;7.10;99.90;;;;;;6357634;22;20187;-93
2022/02/16 08:00:23;;;;;;;9.60;2.30;;;7.10;99.90;;;;;;6351561;22;20189;-94
2022/02/16 08:02:54;;;;;;;9.60;2.80;;;7.10;99.90;;;;;;6350795;22;20209;-93
2022/02/16 08:05:28;;;;;;;10.70;2.47;;;7.10;99.90;;;;;;6345066;22;20173;-92
2022/02/16 08:08:00;;;;;;;8.03;2.20;;;7.20;99.90;;;;;;6345119;22;20162;-93
2022/02/16 08:10:31;;;;;;;8.37;2.60;;;7.10;99.90;;;;;;6347375;22;20162;-94
2022/02/16 08:13:02;;;;;;;11.27;2.63;;;7.10;99.90;;;;;;6320615;22;20162;-93
2022/02/16 08:15:36;;;;;;;10.90;2.83;;;7.10;99.90;;;;;;6346991;22;20162;-92
2022/02/16 08:18:07;;;;;;;11.20;2.77;;;7.00;99.90;;;;;;6344450;22;20188;-93
2022/02/16 08:20:40;;;;;;;9.00;2.20;;;7.10;99.90;;;;;;6345173;22;20193;-94
2022/02/16 08:23:11;;;;;;;10.33;2.77;;;7.10;99.90;;;;;;6344911;22;20185;-93
2022/02/16 08:25:42;;;;;;;7.00;2.23;;;7.10;99.90;;;;;;6354773;22;20165;-95
2022/02/16 08:28:13;;;;;;;9.80;2.17;;;7.10;99.90;;;;;;6366222;22;20172;-94
2022/02/16 08:30:44;;;;;;;10.50;2.50;;;7.00;99.90;;;;;;6340308;22;20150;-94
2022/02/16 08:33:16;;;;;;;10.17;2.40;;;7.10;99.90;;;;;;6362753;22;20177;-92
2022/02/16 08:35:49;;;;;;;14.93;2.77;;;7.10;99.90;;;;;;6332589;22;20178;-92
2022/02/16 08:38:20;;;;;;;9.37;2.33;;;7.10;99.90;;;;;;6346711;22;20611;-92
2022/02/16 08:40:53;;;;;;;9.37;2.37;;;7.10;99.90;;;;;;6346781;22;20198;-94
2022/02/16 08:43:27;;;;;;;7.87;2.80;;;7.00;99.90;;;;;;6325741;22;20439;-94
2022/02/16 08:45:59;;;;;;;12.43;2.40;;;7.00;99.90;;;;;;6345528;22;20262;-94
2022/02/16 08:48:31;;;;;;;14.97;3.23;;;7.00;99.90;;;;;;6344282;22;20246;-94
2022/02/16 08:51:03;;;;;;;11.80;2.33;;;7.10;99.90;;;;;;6347458;22;20166;-93
2022/02/16 08:53:34;;;;;;;10.77;2.80;;;7.00;99.90;;;;;;6346758;22;20225;-93
2022/02/16 08:56:06;;;;;;;10.53;2.57;;;7.00;99.90;;;;;;6345380;22;20228;-93
2022/02/16 08:58:37;;;;;;;10.87;2.03;;;7.00;99.90;;;;;;6344462;22;20231;-93
2022/02/16 09:01:08;;;;;;;10.00;2.77;;;7.00;99.90;;;;;;6319260;22;20196;-94
2022/02/16 09:03:40;;;;;;;13.33;2.27;;;6.90;99.90;;;;;;6349976;22;20223;-94
2022/02/16 09:06:13;;;;;;;10.67;2.70;;;6.90;99.90;;;;;;6351572;22;20184;-93
2022/02/16 09:08:47;;;;;;;11.50;3.17;;;7.00;99.90;;;;;;6345688;22;20180;-94
2022/02/16 09:11:18;;;;;;;9.70;2.23;;;7.00;99.90;;;;;;6346684;22;20205;-93
2022/02/16 09:13:48;;;;;;;13.57;2.80;;;7.00;99.90;;;;;;6350591;22;20178;-93
2022/02/16 09:16:19;;;;;;;9.80;2.60;;;7.00;99.90;;;;;;6351253;22;20248;-94
2022/02/16 09:18:53;;;;;;;13.13;3.03;;;7.10;99.90;;;;;;6351201;22;20631;-94
2022/02/16 09:21:26;;;;;;;9.53;2.93;;;7.10;99.90;;;;;;6353353;22;20190;-94
2022/02/16 09:23:57;;;;;;;10.90;2.27;;;7.00;99.90;;;;;;6347971;22;20533;-93
2022/02/16 09:26:31;;;;;;;11.87;2.33;;;6.90;99.90;;;;;;6344150;22;20166;-94
2022/02/16 09:29:02;;;;;;;11.63;2.87;;;6.90;99.90;;;;;;6344011;22;20168;-94
2022/02/16 09:31:34;;;;;;;12.20;2.60;;;6.90;99.90;;;;;;6344331;22;20597;-93
2022/02/16 09:34:05;;;;;;;12.37;2.37;;;6.90;99.90;;;;;;6344109;22;20177;-91
2022/02/16 09:36:39;;;;;;;11.80;2.77;;;6.90;99.90;;;;;;6343924;22;20604;-93
2022/02/16 09:39:10;;;;;;;9.97;2.50;;;6.90;99.90;;;;;;6346473;22;20614;-90
2022/02/16 09:41:44;;;;;;;15.53;2.50;;;6.90;99.90;;;;;;6351121;22;20201;-94
2022/02/16 09:44:16;;;;;;;8.03;2.23;;;6.80;99.90;;;;;;6349432;22;20165;-91
2022/02/16 09:46:47;;;;;;;10.63;2.50;;;6.90;99.90;;;;;;6347234;22;20177;-92
2022/02/16 09:49:17;;;;;;;13.30;2.27;;;6.80;99.90;;;;;;6348342;22;20612;-94
2022/02/16 09:51:49;;;;;;;10.40;2.60;;;6.80;99.90;;;;;;6344066;22;20181;-92
2022/02/16 09:54:21;;;;;;;8.07;2.50;;;6.80;99.90;;;;;;6343442;22;20176;-94
2022/02/16 09:56:52;;;;;;;10.03;2.90;;;6.80;99.90;;;;;;6344986;22;20714;-93
2022/02/16 09:59:23;;;;;;;10.00;2.37;;;6.80;99.90;;;;;;6343252;22;20626;-92
2022/02/16 10:01:58;;;;;;;12.10;2.83;;;6.80;99.90;;;;;;6343672;22;20212;-94
2022/02/16 10:04:31;;;;;;;11.77;2.57;;;6.80;99.90;;;;;;6343845;22;20192;-94
2022/02/16 10:07:22;;;;;;;10.57;2.80;;;6.80;99.90;;;;;;6342502;22;20595;-93
2022/02/16 10:09:54;;;;;;;9.40;2.40;;;6.90;99.90;;;;;;6344113;22;20181;-94
2022/02/16 10:12:33;;;;;;;7.37;2.53;;;6.90;99.90;;;;;;6344703;22;20556;-93
2022/02/16 10:15:06;;;;;;;10.63;2.37;;;6.90;99.90;;;;;;6344039;22;20166;-93
2022/02/16 10:17:37;;;;;;;10.50;2.87;;;6.90;99.90;;;;;;6341850;22;20180;-94
2022/02/16 10:20:10;;;;;;;8.60;2.47;;;6.80;99.90;;;;;;6343946;22;20200;-92
2022/02/16 10:22:45;;;;;;;10.10;2.90;;;6.80;99.90;;;;;;6351529;22;20197;-93
2022/02/16 10:25:19;;;;;;;10.87;2.30;;;6.80;99.90;;;;;;6345714;22;20164;-93
2022/02/16 10:28:08;;;;;;;10.80;2.37;;;6.80;99.90;;;;;;6344014;22;20183;-94
2022/02/16 10:30:42;;;;;;;12.40;2.53;;;6.80;99.90;;;;;;6345082;22;20232;-92
2022/02/16 10:33:22;;;;;;;11.67;2.73;;;6.80;99.90;;;;;;6344290;22;20176;-94
2022/02/16 10:36:01;;;;;;;9.57;2.40;;;6.70;99.90;;;;;;6344562;22;20169;-92
2022/02/16 10:38:53;;;;;;;10.53;2.30;;;6.70;99.90;;;;;;6355470;22;20173;-93
2022/02/16 10:41:27;;;;;;;9.70;2.40;;;6.80;99.90;;;;;;6365125;22;20178;-94
2022/02/16 10:44:00;;;;;;;6.60;2.00;;;6.70;99.90;;;;;;6363236;22;20195;-93
2022/02/16 10:46:33;;;;;;;9.80;2.40;;;6.70;99.90;;;;;;6346536;22;20635;-94
2022/02/16 10:49:11;;;;;;;9.83;2.60;;;6.70;99.90;;;;;;6343475;22;20169;-93
2022/02/16 10:52:09;;;;;;;11.77;2.90;;;6.80;99.90;;;;;;6344421;22;20228;-93
2022/02/16 10:54:58;;;;;;;11.50;3.07;;;6.80;99.90;;;;;;6343110;22;20177;-95
2022/02/16 10:57:30;;;;;;;10.23;2.77;;;6.80;99.90;;;;;;6344128;22;20239;-94
2022/02/16 11:00:01;;;;;;;11.27;2.77;;;6.80;99.90;;;;;;6350479;22;20225;-94
2022/02/16 11:02:33;;;;;;;7.87;2.53;;;6.80;99.90;;;;;;6349748;22;20197;-94
2022/02/16 11:05:05;;;;;;;14.33;2.50;;;6.90;99.90;;;;;;6344793;22;20177;-94
2022/02/16 11:07:37;;;;;;;17.43;3.53;;;6.90;99.90;;;;;;6343697;22;20177;-92
2022/02/16 11:10:12;;;;;;;7.43;2.50;;;6.90;99.90;;;;;;6344939;22;20165;-93
2022/02/16 11:12:43;;;;;;;14.33;2.70;;;6.90;99.90;;;;;;6345525;22;20162;-94
2022/02/16 11:15:15;;;;;;;14.40;3.03;;;6.90;99.90;;;;;;6318019;22;20174;-93
2022/02/16 11:17:46;;;;;;;14.73;2.97;;;6.90;99.90;;;;;;6344382;22;20169;-94
2022/02/16 11:20:22;;;;;;;15.87;2.57;;;6.90;99.90;;;;;;6344028;22;20203;-93
2022/02/16 11:22:55;;;;;;;10.17;2.20;;;6.90;99.90;;;;;;6344809;22;20192;-93
2022/02/16 11:25:33;;;;;;;10.67;2.53;;;6.90;99.90;;;;;;6342776;22;20174;-94
2022/02/16 11:28:31;;;;;;;11.40;2.70;;;6.90;99.90;;;;;;6307045;22;20253;-93
2022/02/16 11:31:02;;;;;;;10.93;2.73;;;7.00;99.90;;;;;;6344043;22;20165;-93
2022/02/16 11:33:33;;;;;;;8.80;2.23;;;6.90;99.90;;;;;;6343786;22;20182;-93
2022/02/16 11:36:08;;;;;;;11.13;2.57;;;6.90;99.90;;;;;;6343352;22;20177;-93
2022/02/16 11:38:43;;;;;;;11.60;2.90;;;6.90;99.90;;;;;;6342499;22;20190;-93
2022/02/16 11:41:25;;;;;;;14.30;3.10;;;6.90;99.90;;;;;;6344168;22;20166;-95
2022/02/16 11:43:57;;;;;;;14.43;2.97;;;6.90;99.90;;;;;;6344091;22;20220;-93
2022/02/16 11:46:40;;;;;;;14.63;3.30;;;6.90;99.90;;;;;;6348122;22;20195;-92
2022/02/16 11:49:46;;;;;;;17.17;3.83;;;6.90;99.90;;;;;;6344750;22;20173;-93
2022/02/16 11:52:35;;;;;;;13.37;3.03;;;7.00;99.90;;;;;;6318589;22;20189;-93
2022/02/16 11:55:08;;;;;;;17.37;3.17;;;6.90;99.90;;;;;;6347924;22;20185;-94
2022/02/16 11:57:43;;;;;;;16.40;3.10;;;6.90;99.90;;;;;;6323578;22;20216;-92
2022/02/16 12:00:31;;;;;;;14.13;3.47;;;7.00;99.90;;;;;;6345988;22;20172;-93
2022/02/16 12:03:16;;;;;;;11.83;3.13;;;7.00;99.90;;;;;;6345539;22;20235;-93
2022/02/16 12:05:53;;;;;;;14.77;3.33;;;7.00;99.90;;;;;;6349686;22;20166;-93
2022/02/16 12:08:27;;;;;;;17.50;3.43;;;7.00;99.90;;;;;;6320445;22;20217;-93
2022/02/16 12:11:00;;;;;;;18.63;3.17;;;6.90;99.90;;;;;;6345958;22;20276;-93
2022/02/16 12:13:36;;;;;;;9.23;3.00;;;7.00;99.90;;;;;;6347928;22;20563;-93
2022/02/16 12:16:10;;;;;;;16.67;3.30;;;7.00;99.90;;;;;;6360155;22;20189;-93
2022/02/16 12:18:42;;;;;;;16.73;3.53;;;7.00;99.90;;;;;;6361680;22;20174;-94
2022/02/16 12:21:13;;;;;;;14.80;3.40;;;7.00;99.90;;;;;;6364436;22;20170;-93
2022/02/16 12:23:45;;;;;;;14.20;3.50;;;7.00;99.90;;;;;;6337559;22;20198;-91
2022/02/16 12:26:19;;;;;;;17.87;3.63;;;7.00;99.90;;;;;;6364503;22;20166;-94
2022/02/16 12:29:03;;;;;;;17.33;3.50;;;7.00;99.90;;;;;;6363131;22;20207;-93
2022/02/16 12:31:37;;;;;;;11.73;3.70;;;7.00;99.90;;;;;;6362575;22;20169;-94
2022/02/16 12:34:10;;;;;;;15.30;3.83;;;6.90;99.90;;;;;;6363851;22;20187;-92
2022/02/16 12:36:47;;;;;;;17.07;3.27;;;6.90;99.90;;;;;;6360420;22;20227;-93
2022/02/16 12:39:27;;;;;;;22.33;4.43;;;6.90;99.90;;;;;;6345198;22;20176;-94
2022/02/16 12:42:03;;;;;;;17.80;3.77;;;6.90;99.90;;;;;;6345305;22;20265;-93
2022/02/16 12:44:37;;;;;;;19.63;3.37;;;7.00;99.90;;;;;;6349619;22;20199;-92
2022/02/16 12:47:08;;;;;;;13.57;3.53;;;6.90;99.90;;;;;;6352704;22;20178;-92
2022/02/16 12:49:42;;;;;;;13.63;3.10;;;6.90;99.90;;;;;;6355863;22;20162;-93
2022/02/16 12:52:15;;;;;;;15.30;4.00;;;6.90;99.90;;;;;;6363457;22;20166;-93
2022/02/16 12:54:49;;;;;;;18.93;4.27;;;6.80;99.90;;;;;;6365880;22;20173;-94
2022/02/16 12:57:20;;;;;;;18.83;3.90;;;6.80;99.90;;;;;;6363890;22;20174;-92
2022/02/16 13:02:37;;;;;;;15.63;3.33;;;6.80;99.90;;;;;;6281185;22;21111;-93
2022/02/16 13:05:09;;;;;;;20.33;3.47;;;6.80;99.90;;;;;;6322043;22;20189;-93
2022/02/16 13:07:40;;;;;;;16.43;3.67;;;6.80;99.90;;;;;;6362586;22;20184;-93
2022/02/16 13:10:12;;;;;;;15.37;3.63;;;6.70;99.90;;;;;;6361887;22;20187;-92
2022/02/16 13:12:48;;;;;;;18.57;3.80;;;6.80;99.90;;;;;;6355806;22;20201;-94
2022/02/16 13:15:23;;;;;;;16.30;3.67;;;6.80;99.90;;;;;;6364336;22;20173;-93
2022/02/16 13:17:56;;;;;;;17.17;4.03;;;6.80;99.90;;;;;;6362579;22;20169;-91
2022/02/16 13:20:32;;;;;;;22.73;3.57;;;6.80;99.90;;;;;;6355312;22;20173;-93
2022/02/16 13:23:06;;;;;;;15.80;3.40;;;6.80;99.90;;;;;;6349704;22;20246;-94
2022/02/16 13:25:39;;;;;;;10.83;3.00;;;6.80;99.90;;;;;;6346289;22;20166;-93
2022/02/16 13:28:16;;;;;;;16.43;2.97;;;6.80;99.90;;;;;;6349128;22;20476;-93
2022/02/16 13:30:50;;;;;;;18.80;4.97;;;6.70;99.90;;;;;;6345111;22;20177;-94
2022/02/16 13:33:24;;;;;;;17.67;3.90;;;6.70;99.90;;;;;;6345048;22;20161;-93
2022/02/16 13:35:57;;;;;;;16.73;3.27;;;6.80;99.90;;;;;;6344494;22;20175;-92
2022/02/16 13:38:30;;;;;;;15.53;3.50;;;6.80;99.90;;;;;;6343505;22;20177;-94
2022/02/16 13:41:08;;;;;;;14.70;4.37;;;6.90;99.90;;;;;;6344067;22;20175;-93
2022/02/16 13:44:00;;;;;;;16.97;3.97;;;6.90;99.90;;;;;;6342136;22;20224;-92
2022/02/16 13:46:46;;;;;;;14.50;3.50;;;6.90;99.90;;;;;;6349598;22;20166;-93
2022/02/16 13:49:19;;;;;;;17.37;3.60;;;6.90;99.90;;;;;;6364610;22;20154;-92
2022/02/16 13:51:52;;;;;;;18.37;4.00;;;7.00;99.90;;;;;;6364782;22;20169;-93
2022/02/16 13:54:26;;;;;;;15.13;3.40;;;7.00;99.90;;;;;;6360359;22;20184;-92
2022/02/16 13:56:58;;;;;;;16.97;3.80;;;6.90;99.90;;;;;;6359736;22;20166;-93
2022/02/16 13:59:30;;;;;;;21.07;4.27;;;6.90;99.90;;;;;;6364940;22;20183;-94
2022/02/16 14:02:22;;;;;;;18.47;4.40;;;6.90;99.90;;;;;;6363506;22;20188;-92
2022/02/16 14:04:55;;;;;;;13.53;3.33;;;6.90;99.90;;;;;;6345992;22;20239;-94
2022/02/16 14:07:27;;;;;;;11.77;3.63;;;6.90;99.90;;;;;;6343984;22;20185;-94